createdAt,value
2018-07-28T00:02:11.989Z,99540.00
2018-07-28T00:04:39.620Z,99537.00
2018-07-28T00:07:07.815Z,99535.00
2018-07-28T00:09:35.671Z,99535.00
2018-07-28T00:12:03.378Z,99532.00
2018-07-28T00:14:30.959Z,99524.00
2018-07-28T00:16:58.749Z,99523.00
2018-07-28T00:19:26.380Z,99521.00
2018-07-28T00:21:54.251Z,99519.00
2018-07-28T00:24:26.728Z,99516.00
2018-07-28T00:26:54.535Z,99510.00
2018-07-28T00:29:22.148Z,99510.00
2018-07-28T00:31:49.870Z,99504.00
2018-07-28T00:34:17.672Z,99509.00
2018-07-28T00:36:45.316Z,99509.00
2018-07-28T00:39:13.808Z,99514.00
2018-07-28T00:41:41.896Z,99510.00
2018-07-28T00:44:09.504Z,99508.00
2018-07-28T00:46:37.200Z,99503.00
2018-07-28T00:49:05.489Z,99502.00
2018-07-28T00:51:33.335Z,99508.00
2018-07-28T00:54:01.917Z,99505.00
2018-07-28T00:56:29.651Z,99502.00
2018-07-28T00:58:57.660Z,99497.00
2018-07-28T01:01:25.251Z,99503.00
2018-07-28T01:03:52.972Z,99498.00
2018-07-28T01:06:21.676Z,99491.00
2018-07-28T01:08:49.359Z,99488.00
2018-07-28T01:11:16.992Z,99479.00
2018-07-28T01:13:45.015Z,99480.00
2018-07-28T01:16:12.620Z,99479.00
2018-07-28T01:18:40.536Z,99473.00
2018-07-28T01:21:08.453Z,99479.00
2018-07-28T01:23:36.101Z,99483.00
2018-07-28T01:26:04.041Z,99482.00
2018-07-28T01:28:31.721Z,99476.00
2018-07-28T01:30:59.360Z,99474.00
2018-07-28T01:33:27.086Z,99476.00
2018-07-28T01:35:54.923Z,99477.00
2018-07-28T01:38:22.684Z,99476.00
2018-07-28T01:40:50.331Z,99476.00
2018-07-28T01:43:17.995Z,99479.00
2018-07-28T01:45:46.006Z,99472.00
2018-07-28T01:48:13.646Z,99469.00
2018-07-28T01:50:41.336Z,99470.00
2018-07-28T01:53:09.348Z,99465.00
2018-07-28T01:55:36.996Z,99466.00
2018-07-28T01:58:04.785Z,99464.00
2018-07-28T02:00:32.548Z,99460.00
2018-07-28T02:03:00.213Z,99467.00
2018-07-28T02:05:35.459Z,99468.00
2018-07-28T02:08:33.541Z,99468.00
2018-07-28T02:11:16.666Z,99475.00
2018-07-28T02:13:52.704Z,99466.00
2018-07-28T02:16:20.492Z,99458.00
2018-07-28T02:18:48.092Z,99454.00
2018-07-28T02:21:15.772Z,99452.00
2018-07-28T02:23:43.491Z,99445.00
2018-07-28T02:26:11.074Z,99445.00
2018-07-28T02:28:38.778Z,99443.00
2018-07-28T02:31:06.606Z,99443.00
2018-07-28T02:33:34.293Z,99439.00
2018-07-28T02:36:03.482Z,99433.00
2018-07-28T02:38:31.577Z,99437.00
2018-07-28T02:40:59.142Z,99433.00
2018-07-28T02:43:26.834Z,99437.00
2018-07-28T02:45:55.510Z,99440.00
2018-07-28T02:48:23.221Z,99439.00
2018-07-28T02:50:50.911Z,99441.00
2018-07-28T02:53:19.625Z,99435.00
2018-07-28T02:55:47.233Z,99437.00
2018-07-28T02:58:14.879Z,99438.00
2018-07-28T03:00:42.837Z,99437.00
2018-07-28T03:03:10.816Z,99445.00
2018-07-28T03:05:38.403Z,99445.00
2018-07-28T03:08:06.644Z,99443.00
2018-07-28T03:10:34.298Z,99440.00
2018-07-28T03:13:01.983Z,99443.00
2018-07-28T03:15:31.124Z,99446.00
2018-07-28T03:18:00.146Z,99442.00
2018-07-28T03:20:28.010Z,99431.00
2018-07-28T03:22:55.775Z,99434.00
2018-07-28T03:25:23.944Z,99435.00
2018-07-28T03:27:51.613Z,99437.00
2018-07-28T03:30:19.456Z,99429.00
2018-07-28T03:32:47.101Z,99430.00
2018-07-28T03:35:14.735Z,99433.00
2018-07-28T03:37:49.796Z,99439.00
2018-07-28T03:40:17.477Z,99436.00
2018-07-28T03:42:45.139Z,99433.00
2018-07-28T03:45:13.025Z,99434.00
2018-07-28T03:47:41.260Z,99431.00
2018-07-28T03:50:09.112Z,99431.00
2018-07-28T03:52:36.949Z,99430.00
2018-07-28T03:55:05.518Z,99427.00
2018-07-28T03:57:33.180Z,99424.00
2018-07-28T04:00:01.113Z,99428.00
2018-07-28T04:02:28.737Z,99425.00
2018-07-28T04:04:56.413Z,99425.00
2018-07-28T04:07:24.232Z,99423.00
2018-07-28T04:09:51.927Z,99420.00
2018-07-28T04:12:19.600Z,99427.00
2018-07-28T04:14:48.109Z,99425.00
2018-07-28T04:17:15.741Z,99423.00
2018-07-28T04:19:43.508Z,99421.00
2018-07-28T04:22:11.396Z,99425.00
2018-07-28T04:24:38.980Z,99424.00
2018-07-28T04:27:07.048Z,99423.00
2018-07-28T04:29:34.720Z,99419.00
2018-07-28T04:32:02.626Z,99416.00
2018-07-28T04:34:30.318Z,99415.00
2018-07-28T04:36:58.067Z,99423.00
2018-07-28T04:39:26.119Z,99422.00
2018-07-28T04:41:53.724Z,99416.00
2018-07-28T04:44:21.309Z,99412.00
2018-07-28T04:46:48.960Z,99412.00
2018-07-28T04:49:16.583Z,99415.00
2018-07-28T04:51:44.181Z,99420.00
2018-07-28T04:54:12.030Z,99422.00
2018-07-28T04:56:40.735Z,99416.00
2018-07-28T04:59:08.492Z,99419.00
2018-07-28T05:01:36.176Z,99410.00
2018-07-28T05:04:03.781Z,99413.00
2018-07-28T05:06:31.559Z,99411.00
2018-07-28T05:08:59.233Z,99414.00
2018-07-28T05:11:26.883Z,99409.00
2018-07-28T05:13:54.651Z,99413.00
2018-07-28T05:16:22.346Z,99406.00
2018-07-28T05:18:50.170Z,99404.00
2018-07-28T05:21:17.796Z,99403.00
2018-07-28T05:23:46.166Z,99400.00
2018-07-28T05:26:13.950Z,99396.00
2018-07-28T05:28:41.606Z,99394.00
2018-07-28T05:31:09.217Z,99387.00
2018-07-28T05:33:37.233Z,99391.00
2018-07-28T05:36:04.892Z,99391.00
2018-07-28T05:38:32.777Z,99383.00
2018-07-28T05:41:00.680Z,99387.00
2018-07-28T05:43:28.368Z,99386.00
2018-07-28T05:45:55.992Z,99385.00
2018-07-28T05:48:23.971Z,99381.00
2018-07-28T05:50:51.659Z,99382.00
2018-07-28T05:53:19.244Z,99375.00
2018-07-28T05:55:47.169Z,99380.00
2018-07-28T05:58:15.161Z,99375.00
2018-07-28T06:00:43.924Z,99380.00
2018-07-28T06:03:11.582Z,99373.00
2018-07-28T06:05:39.272Z,99374.00
2018-07-28T06:08:07.152Z,99379.00
2018-07-28T06:10:34.741Z,99379.00
2018-07-28T06:13:02.604Z,99377.00
2018-07-28T06:15:30.258Z,99372.00
2018-07-28T06:17:57.898Z,99362.00
2018-07-28T06:20:25.891Z,99361.00
2018-07-28T06:22:53.532Z,99360.00
2018-07-28T06:25:21.559Z,99357.00
2018-07-28T06:27:49.206Z,99358.00
2018-07-28T06:30:16.825Z,99349.00
2018-07-28T06:32:44.633Z,99344.00
2018-07-28T06:35:12.309Z,99341.00
2018-07-28T06:37:39.917Z,99341.00
2018-07-28T06:40:08.493Z,99336.00
2018-07-28T06:42:36.086Z,99338.00
2018-07-28T06:45:04.385Z,99337.00
2018-07-28T06:47:32.272Z,99333.00
2018-07-28T06:49:59.889Z,99333.00
2018-07-28T06:52:27.665Z,99335.00
2018-07-28T06:54:55.381Z,99331.00
2018-07-28T06:57:23.096Z,99326.00
2018-07-28T06:59:51.317Z,99329.00
2018-07-28T07:02:19.027Z,99324.00
2018-07-28T07:04:46.695Z,99324.00
2018-07-28T07:07:15.144Z,99324.00
2018-07-28T07:09:43.404Z,99323.00
2018-07-28T07:12:11.136Z,99317.00
2018-07-28T07:14:38.757Z,99312.00
2018-07-28T07:17:06.874Z,99313.00
2018-07-28T07:19:34.604Z,99309.00
2018-07-28T07:22:02.404Z,99309.00
2018-07-28T07:24:30.092Z,99310.00
2018-07-28T07:26:58.317Z,99316.00
2018-07-28T07:29:26.198Z,99315.00
2018-07-28T07:31:54.062Z,99316.00
2018-07-28T07:34:21.930Z,99312.00
2018-07-28T07:36:50.003Z,99318.00
2018-07-28T07:39:23.319Z,99315.00
2018-07-28T07:41:51.308Z,99307.00
2018-07-28T07:44:19.161Z,99305.00
2018-07-28T07:46:47.450Z,99313.00
2018-07-28T07:49:15.149Z,99303.00
2018-07-28T07:51:43.116Z,99303.00
2018-07-28T07:54:11.189Z,99291.00
2018-07-28T07:56:38.817Z,99287.00
2018-07-28T07:59:06.734Z,99291.00
2018-07-28T08:01:34.321Z,99290.00
2018-07-28T08:04:02.168Z,99295.00
2018-07-28T08:06:30.216Z,99295.00
2018-07-28T08:08:57.746Z,99296.00
2018-07-28T08:11:25.491Z,99289.00
2018-07-28T08:13:53.522Z,99289.00
2018-07-28T08:16:21.216Z,99285.00
2018-07-28T08:18:48.980Z,99280.00
2018-07-28T08:21:16.548Z,99281.00
2018-07-28T08:23:44.146Z,99283.00
2018-07-28T08:26:12.090Z,99277.00
2018-07-28T08:28:39.638Z,99280.00
2018-07-28T08:31:07.466Z,99274.00
2018-07-28T08:33:35.365Z,99273.00
2018-07-28T08:36:03.021Z,99273.00
2018-07-28T08:38:30.684Z,99274.00
2018-07-28T08:40:58.808Z,99274.00
2018-07-28T08:43:26.410Z,99271.00
2018-07-28T08:45:54.068Z,99273.00
2018-07-28T08:48:21.733Z,99278.00
2018-07-28T08:50:49.472Z,99275.00
2018-07-28T08:53:16.733Z,99275.00
2018-07-28T08:55:44.345Z,99275.00
2018-07-28T08:58:12.049Z,99270.00
2018-07-28T09:00:39.824Z,99276.00
2018-07-28T09:03:07.444Z,99272.00
2018-07-28T09:05:35.009Z,99272.00
2018-07-28T09:08:03.419Z,99265.00
2018-07-28T09:10:31.101Z,99272.00
2018-07-28T09:12:58.981Z,99269.00
2018-07-28T09:15:27.848Z,99278.00
2018-07-28T09:17:55.493Z,99277.00
2018-07-28T09:20:23.368Z,99279.00
2018-07-28T09:22:51.218Z,99272.00
2018-07-28T09:25:18.821Z,99274.00
2018-07-28T09:27:46.600Z,99271.00
2018-07-28T09:30:14.781Z,99272.00
2018-07-28T09:32:42.476Z,99268.00
2018-07-28T09:35:10.412Z,99268.00
2018-07-28T09:37:38.101Z,99269.00
2018-07-28T09:40:08.553Z,99270.00
2018-07-28T09:42:36.759Z,99268.00
2018-07-28T09:45:05.184Z,99267.00
2018-07-28T09:47:32.870Z,99261.00
2018-07-28T09:50:00.768Z,99259.00
2018-07-28T09:52:28.457Z,99252.00
2018-07-28T09:54:56.493Z,99247.00
2018-07-28T09:57:24.857Z,99249.00
2018-07-28T09:59:52.640Z,99248.00
2018-07-28T10:02:20.393Z,99253.00
2018-07-28T10:04:48.584Z,99255.00
2018-07-28T10:07:16.410Z,99248.00
2018-07-28T10:09:43.947Z,99242.00
2018-07-28T10:12:11.913Z,99240.00
2018-07-28T10:14:39.873Z,99230.00
2018-07-28T10:17:07.805Z,99235.00
2018-07-28T10:19:35.997Z,99230.00
2018-07-28T10:22:03.980Z,99217.00
2018-07-28T10:24:31.885Z,99230.00
2018-07-28T10:26:59.528Z,99238.00
2018-07-28T10:29:27.756Z,99231.00
2018-07-28T10:31:55.391Z,99235.00
2018-07-28T10:34:23.635Z,99227.00
2018-07-28T10:36:51.434Z,99233.00
2018-07-28T10:39:19.626Z,99232.00
2018-07-28T10:41:47.917Z,99239.00
2018-07-28T10:44:15.664Z,99236.00
2018-07-28T10:46:43.520Z,99226.00
2018-07-28T10:49:11.759Z,99222.00
2018-07-28T10:51:40.052Z,99226.00
2018-07-28T10:54:08.015Z,99220.00
2018-07-28T10:56:36.038Z,99224.00
2018-07-28T10:59:04.215Z,99218.00
2018-07-28T11:01:32.282Z,99222.00
2018-07-28T11:04:01.102Z,99223.00
2018-07-28T11:06:29.251Z,99226.00
2018-07-28T11:08:57.231Z,99222.00
2018-07-28T11:11:24.642Z,99218.00
2018-07-28T11:13:52.264Z,99212.00
2018-07-28T11:16:20.885Z,99214.00
2018-07-28T11:18:48.606Z,99209.00
2018-07-28T11:21:16.217Z,99208.00
2018-07-28T11:23:55.557Z,99207.00
2018-07-28T11:26:23.490Z,99210.00
2018-07-28T11:28:53.187Z,99208.00
2018-07-28T11:32:37.927Z,99210.00
2018-07-28T11:35:33.757Z,99205.00
2018-07-28T11:38:30.346Z,99204.00
2018-07-28T11:41:15.515Z,99203.00
2018-07-28T11:44:01.089Z,99205.00
2018-07-28T11:46:29.933Z,99203.00
2018-07-28T11:48:57.572Z,99208.00
2018-07-28T11:51:27.771Z,99213.00
2018-07-28T11:53:58.302Z,99221.00
2018-07-28T11:56:27.632Z,99225.00
2018-07-28T11:58:55.238Z,99226.00
2018-07-28T12:01:22.797Z,99227.00
2018-07-28T12:03:50.508Z,99223.00
2018-07-28T12:06:18.134Z,99219.00
2018-07-28T12:08:45.810Z,99212.00
2018-07-28T12:11:13.305Z,99214.00
2018-07-28T12:13:40.954Z,99208.00
2018-07-28T12:16:08.669Z,99207.00
2018-07-28T12:18:36.439Z,99212.00
2018-07-28T12:21:04.259Z,99203.00
2018-07-28T12:23:31.869Z,99205.00
2018-07-28T12:25:59.444Z,99202.00
2018-07-28T12:28:27.159Z,99202.00
2018-07-28T12:30:54.765Z,99213.00
2018-07-28T12:33:22.414Z,99225.00
2018-07-28T12:35:50.898Z,99229.00
2018-07-28T12:38:18.805Z,99234.00
2018-07-28T12:40:48.605Z,99236.00
2018-07-28T12:43:16.237Z,99253.00
2018-07-28T12:45:43.864Z,99253.00
2018-07-28T12:48:11.789Z,99262.00
2018-07-28T12:50:39.457Z,99261.00
2018-07-28T12:53:07.325Z,99265.00
2018-07-28T12:55:35.232Z,99271.00
2018-07-28T12:58:02.798Z,99265.00
2018-07-28T13:00:30.537Z,99269.00
2018-07-28T13:02:58.094Z,99260.00
2018-07-28T13:05:26.228Z,99262.00
2018-07-28T13:07:54.025Z,99261.00
2018-07-28T13:10:21.688Z,99269.00
2018-07-28T13:12:49.757Z,99266.00
2018-07-28T13:15:17.200Z,99261.00
2018-07-28T13:17:44.880Z,99256.00
2018-07-28T13:20:12.420Z,99248.00
2018-07-28T13:22:40.100Z,99241.00
2018-07-28T13:25:07.756Z,99237.00
2018-07-28T13:27:35.353Z,99236.00
2018-07-28T13:30:03.783Z,99225.00
2018-07-28T13:32:31.367Z,99212.00
2018-07-28T13:34:59.034Z,99198.00
2018-07-28T13:37:27.279Z,99184.00
2018-07-28T13:39:54.922Z,99170.00
2018-07-28T13:42:22.520Z,99166.00
2018-07-28T13:44:56.624Z,99173.00
2018-07-28T13:47:24.204Z,99193.00
2018-07-28T13:49:59.991Z,99196.00
2018-07-28T13:52:27.609Z,99205.00
2018-07-28T13:54:55.589Z,99203.00
2018-07-28T13:57:24.273Z,99210.00
2018-07-28T13:59:52.660Z,99209.00
2018-07-28T14:02:20.510Z,99195.00
2018-07-28T14:04:48.233Z,99195.00
2018-07-28T14:07:15.830Z,99188.00
2018-07-28T14:09:43.881Z,99189.00
2018-07-28T14:12:11.549Z,99200.00
2018-07-28T14:14:39.237Z,99189.00
2018-07-28T14:17:06.872Z,99192.00
2018-07-28T14:19:34.474Z,99192.00
2018-07-28T14:22:02.059Z,99194.00
2018-07-28T14:24:29.959Z,99195.00
2018-07-28T14:26:57.661Z,99197.00
2018-07-28T14:29:25.375Z,99191.00
2018-07-28T14:31:53.432Z,99194.00
2018-07-28T14:34:21.002Z,99188.00
2018-07-28T14:36:48.563Z,99176.00
2018-07-28T14:39:16.456Z,99179.00
2018-07-28T14:41:44.238Z,99169.00
2018-07-28T14:44:11.836Z,99166.00
2018-07-28T14:46:39.579Z,99164.00
2018-07-28T14:49:07.213Z,99167.00
2018-07-28T14:51:35.128Z,99168.00
2018-07-28T14:54:09.560Z,99162.00
2018-07-28T14:56:37.401Z,99159.00
2018-07-28T14:59:05.296Z,99159.00
2018-07-28T15:01:32.969Z,99165.00
2018-07-28T15:04:00.802Z,99165.00
2018-07-28T15:06:29.399Z,99161.00
2018-07-28T15:08:56.979Z,99162.00
2018-07-28T15:11:24.950Z,99150.00
2018-07-28T15:13:52.667Z,99149.00
2018-07-28T15:16:20.684Z,99144.00
2018-07-28T15:18:48.432Z,99142.00
2018-07-28T15:21:16.126Z,99151.00
2018-07-28T15:23:43.859Z,99147.00
2018-07-28T15:26:12.374Z,99151.00
2018-07-28T15:28:40.043Z,99156.00
2018-07-28T15:31:11.105Z,99158.00
2018-07-28T15:33:46.109Z,99156.00
2018-07-28T15:36:13.857Z,99157.00
2018-07-28T15:38:41.446Z,99156.00
2018-07-28T15:41:09.371Z,99156.00
2018-07-28T15:43:36.962Z,99163.00
2018-07-28T15:46:05.971Z,99162.00
2018-07-28T15:48:33.530Z,99163.00
2018-07-28T15:51:01.169Z,99166.00
2018-07-28T15:53:29.049Z,99165.00
2018-07-28T15:55:56.621Z,99167.00
2018-07-28T15:58:24.585Z,99170.00
2018-07-28T16:00:52.156Z,99168.00
2018-07-28T16:03:19.732Z,99170.00
2018-07-28T16:05:48.159Z,99172.00
2018-07-28T16:08:15.726Z,99174.00
2018-07-28T16:10:43.405Z,99177.00
2018-07-28T16:13:11.244Z,99175.00
2018-07-28T16:15:39.028Z,99179.00
2018-07-28T16:18:06.625Z,99179.00
2018-07-28T16:20:34.342Z,99179.00
2018-07-28T16:23:02.129Z,99178.00
2018-07-28T16:25:30.568Z,99175.00
2018-07-28T16:27:58.480Z,99175.00
2018-07-28T16:30:26.053Z,99184.00
2018-07-28T16:32:53.634Z,99187.00
2018-07-28T16:35:21.547Z,99187.00
2018-07-28T16:37:49.188Z,99186.00
2018-07-28T16:40:16.928Z,99183.00
2018-07-28T16:42:44.513Z,99187.00
2018-07-28T16:45:12.108Z,99185.00
2018-07-28T16:47:39.737Z,99189.00
2018-07-28T16:50:07.751Z,99186.00
2018-07-28T16:52:35.453Z,99185.00
2018-07-28T16:55:03.251Z,99200.00
2018-07-28T16:57:31.302Z,99213.00
2018-07-28T16:59:58.933Z,99231.00
2018-07-28T17:02:26.546Z,99229.00
2018-07-28T17:04:54.445Z,99233.00
2018-07-28T17:07:22.397Z,99231.00
2018-07-28T17:09:50.009Z,99237.00
2018-07-28T17:12:17.618Z,99241.00
2018-07-28T17:14:45.505Z,99241.00
2018-07-28T17:17:13.100Z,99248.00
2018-07-28T17:19:40.700Z,99256.00
2018-07-28T17:22:08.920Z,99265.00
2018-07-28T17:24:36.531Z,99266.00
2018-07-28T17:27:04.162Z,99280.00
2018-07-28T17:29:32.024Z,99275.00
2018-07-28T17:31:59.659Z,99276.00
2018-07-28T17:34:27.269Z,99287.00
2018-07-28T17:36:55.241Z,99286.00
2018-07-28T17:39:22.873Z,99291.00
2018-07-28T17:41:50.489Z,99290.00
2018-07-28T17:44:18.299Z,99286.00
2018-07-28T17:46:45.961Z,99305.00
2018-07-28T17:49:13.514Z,99301.00
2018-07-28T17:51:41.427Z,99323.00
2018-07-28T17:54:09.102Z,99310.00
2018-07-28T17:56:36.888Z,99307.00
2018-07-28T17:59:04.528Z,99305.00
2018-07-28T18:01:32.285Z,99304.00
2018-07-28T18:03:59.836Z,99301.00
2018-07-28T18:06:27.430Z,99289.00
2018-07-28T18:08:55.332Z,99293.00
2018-07-28T18:11:23.164Z,99292.00
2018-07-28T18:13:50.757Z,99283.00
2018-07-28T18:16:18.392Z,99287.00
2018-07-28T18:18:46.209Z,99285.00
2018-07-28T18:21:13.961Z,99285.00
2018-07-28T18:23:49.120Z,99283.00
2018-07-28T18:26:16.710Z,99289.00
2018-07-28T18:28:44.428Z,99296.00
2018-07-28T18:31:12.355Z,99295.00
2018-07-28T18:33:40.558Z,99303.00
2018-07-28T18:36:08.202Z,99308.00
2018-07-28T18:38:35.816Z,99324.00
2018-07-28T18:41:03.518Z,99342.00
2018-07-28T18:43:31.098Z,99347.00
2018-07-28T18:45:58.718Z,99343.00
2018-07-28T18:48:26.565Z,99350.00
2018-07-28T18:50:54.553Z,99356.00
2018-07-28T18:53:22.105Z,99349.00
2018-07-28T18:55:50.221Z,99363.00
2018-07-28T18:58:17.858Z,99365.00
2018-07-28T19:00:45.468Z,99377.00
2018-07-28T19:03:13.104Z,99387.00
2018-07-28T19:05:40.992Z,99389.00
2018-07-28T19:08:08.635Z,99394.00
2018-07-28T19:10:36.501Z,99398.00
2018-07-28T19:13:09.946Z,99392.00
2018-07-28T19:15:38.060Z,99390.00
2018-07-28T19:19:13.096Z,99391.00
2018-07-28T19:21:41.779Z,99400.00
2018-07-28T19:24:09.502Z,99402.00
2018-07-28T19:26:37.056Z,99406.00
2018-07-28T19:29:10.615Z,99425.00
2018-07-28T19:31:38.240Z,99421.00
2018-07-28T19:34:06.144Z,99421.00
2018-07-28T19:36:39.540Z,99426.00
2018-07-28T19:39:08.293Z,99426.00
2018-07-28T19:41:42.128Z,99428.00
2018-07-28T19:44:10.634Z,99428.00
2018-07-28T19:46:38.265Z,99424.00
2018-07-28T19:49:06.583Z,99422.00
2018-07-28T19:51:34.212Z,99423.00
2018-07-28T19:54:01.921Z,99433.00
2018-07-28T19:56:30.095Z,99439.00
2018-07-28T19:58:57.738Z,99434.00
2018-07-28T20:01:25.436Z,99439.00
2018-07-28T20:03:53.916Z,99435.00
2018-07-28T20:06:21.578Z,99440.00
2018-07-28T20:08:49.316Z,99455.00
2018-07-28T20:11:16.972Z,99474.00
2018-07-28T20:13:44.754Z,99471.00
2018-07-28T20:16:12.563Z,99469.00
2018-07-28T20:18:40.420Z,99477.00
2018-07-28T20:21:08.124Z,99476.00
2018-07-28T20:23:36.055Z,99479.00
2018-07-28T20:26:04.124Z,99481.00
2018-07-28T20:28:32.029Z,99486.00
2018-07-28T20:30:59.681Z,99493.00
2018-07-28T20:33:27.534Z,99504.00
2018-07-28T20:35:55.270Z,99496.00
2018-07-28T20:38:23.337Z,99506.00
2018-07-28T20:40:51.169Z,99521.00
2018-07-28T20:43:18.853Z,99535.00
2018-07-28T20:45:46.448Z,99558.00
2018-07-28T20:48:14.295Z,99579.00
2018-07-28T20:50:41.902Z,99586.00
2018-07-28T20:53:09.547Z,99597.00
2018-07-28T20:55:37.197Z,99592.00
2018-07-28T20:58:04.926Z,99589.00
2018-07-28T21:00:32.807Z,99596.00
2018-07-28T21:03:00.414Z,99602.00
2018-07-28T21:05:28.046Z,99610.00
2018-07-28T21:07:55.995Z,99622.00
2018-07-28T21:10:23.566Z,99634.00
2018-07-28T21:12:51.221Z,99633.00
2018-07-28T21:15:19.218Z,99630.00
2018-07-28T21:17:46.861Z,99634.00
2018-07-28T21:20:14.465Z,99632.00
2018-07-28T21:22:42.552Z,99636.00
2018-07-28T21:25:10.168Z,99625.00
2018-07-28T21:27:37.853Z,99633.00
2018-07-28T21:30:05.700Z,99632.00
2018-07-28T21:32:33.639Z,99639.00
2018-07-28T21:35:01.361Z,99640.00
2018-07-28T21:37:28.920Z,99638.00
2018-07-28T21:39:56.512Z,99634.00
2018-07-28T21:42:24.308Z,99626.00
2018-07-28T21:44:52.133Z,99625.00
2018-07-28T21:47:20.830Z,99621.00
2018-07-28T21:49:48.648Z,99625.00
2018-07-28T21:52:16.259Z,99634.00
2018-07-28T21:54:43.964Z,99635.00
2018-07-28T21:57:11.577Z,99635.00
2018-07-28T21:59:39.320Z,99632.00
2018-07-28T22:02:07.391Z,99638.00
2018-07-28T22:04:37.129Z,99644.00
2018-07-28T22:07:04.789Z,99646.00
2018-07-28T22:09:32.933Z,99642.00
2018-07-28T22:12:00.707Z,99638.00
2018-07-28T22:14:28.331Z,99634.00
2018-07-28T22:16:56.018Z,99638.00
2018-07-28T22:19:23.742Z,99642.00
2018-07-28T22:21:51.328Z,99644.00
2018-07-28T22:24:19.121Z,99641.00
2018-07-28T22:26:46.850Z,99645.00
2018-07-28T22:29:14.480Z,99651.00
2018-07-28T22:31:42.590Z,99659.00
2018-07-28T22:34:10.241Z,99653.00
2018-07-28T22:36:37.940Z,99648.00
2018-07-28T22:39:08.907Z,99626.00
2018-07-28T22:41:36.814Z,99631.00
2018-07-28T22:44:04.494Z,99626.00
2018-07-28T22:46:32.046Z,99632.00
2018-07-28T22:48:59.994Z,99652.00
2018-07-28T22:51:27.660Z,99659.00
2018-07-28T22:53:55.318Z,99690.00
2018-07-28T22:56:23.314Z,99708.00
2018-07-28T22:58:50.870Z,99709.00
2018-07-28T23:01:18.916Z,99712.00
2018-07-28T23:03:46.513Z,99721.00
2018-07-28T23:06:14.138Z,99715.00
2018-07-28T23:08:42.160Z,99713.00
2018-07-28T23:11:09.722Z,99718.00
2018-07-28T23:13:37.381Z,99722.00
2018-07-28T23:16:05.876Z,99725.00
2018-07-28T23:18:33.471Z,99731.00
2018-07-28T23:21:01.092Z,99733.00
2018-07-28T23:23:28.908Z,99730.00
2018-07-28T23:25:56.574Z,99731.00
2018-07-28T23:28:24.225Z,99732.00
2018-07-28T23:30:51.940Z,99734.00
2018-07-28T23:33:26.410Z,99737.00
2018-07-28T23:35:54.499Z,99744.00
2018-07-28T23:38:22.112Z,99745.00
2018-07-28T23:40:49.729Z,99759.00
2018-07-28T23:43:17.558Z,99770.00
2018-07-28T23:45:45.201Z,99775.00
2018-07-28T23:48:12.784Z,99783.00
2018-07-28T23:50:40.567Z,99783.00
2018-07-28T23:53:08.346Z,99786.00
2018-07-28T23:55:35.967Z,99787.00
2018-07-28T23:58:03.605Z,99790.00
